Aviation Digital Data Service (ADDS)

Output produced by METARs form (1131 UTC 15 July 2020)
found at http://www.aviationweather.gov/metar/data/
 
Forecast for: KILG (WILMINGTON , DE, US)
Text: KILG 151120Z 1512/1612 05006KT P6SM SKC
Forecast period: 1200 to 1700 UTC 15 July 2020
Forecast type: FROM: standard forecast or significant change
Winds: from the NE (50 degrees) at 7 MPH (6 knots; 3.1 m/s)
Visibility: 6 or more miles 10+ km)
Clouds: clear skies
Weather: no significant weather forecast for this period
Text: FM151700 14008KT P6SM SCT050
Forecast period: 1700 UTC 15 July 2020 to 0900 UTC 16 July 2020
Forecast type: FROM: standard forecast or significant change
Winds: from the SE (140 degrees) at 9 MPH (8 knots; 4.1 m/s)
Visibility: 6 or more miles 10+ km)
Ceiling: at least 12,000 feet AGL
Clouds: scattered clouds at 5000 feet AGL
Weather: no significant weather forecast for this period
Text: FM160900 11005KT P6SM BKN020
Forecast period: 0900 to 1200 UTC 16 July 2020
Forecast type: FROM: standard forecast or significant change
Winds: from the ESE (110 degrees) at 6 MPH (5 knots; 2.6 m/s)
Visibility: 6 or more miles 10+ km)
Ceiling: 2000 feet AGL
Clouds: broken clouds at 2000 feet AGL
Weather: no significant weather forecast for this period